sensor_id;sensor_type;location;lat;lon;timestamp;P1;durP1;ratioP1;P2;durP2;ratioP2
27013;SDS011;14556;52.222;4.510;2024-02-21T00:00:18;10.80;;;1.93;;
27013;SDS011;14556;52.222;4.510;2024-02-21T00:02:45;10.43;;;2.10;;
27013;SDS011;14556;52.222;4.510;2024-02-21T00:05:11;8.87;;;1.93;;
27013;SDS011;14556;52.222;4.510;2024-02-21T00:07:39;7.23;;;1.57;;
27013;SDS011;14556;52.222;4.510;2024-02-21T00:10:05;7.97;;;1.53;;
27013;SDS011;14556;52.222;4.510;2024-02-21T00:12:35;9.73;;;1.40;;
27013;SDS011;14556;52.222;4.510;2024-02-21T00:15:02;8.47;;;1.73;;
27013;SDS011;14556;52.222;4.510;2024-02-21T00:17:29;8.70;;;2.00;;
27013;SDS011;14556;52.222;4.510;2024-02-21T00:19:56;6.07;;;1.80;;
27013;SDS011;14556;52.222;4.510;2024-02-21T00:22:25;6.73;;;1.30;;
27013;SDS011;14556;52.222;4.510;2024-02-21T00:24:57;9.63;;;1.73;;
27013;SDS011;14556;52.222;4.510;2024-02-21T00:27:24;6.97;;;2.13;;
27013;SDS011;14556;52.222;4.510;2024-02-21T00:29:51;9.67;;;2.00;;
27013;SDS011;14556;52.222;4.510;2024-02-21T00:32:18;12.37;;;2.13;;
27013;SDS011;14556;52.222;4.510;2024-02-21T00:34:44;8.83;;;1.43;;
27013;SDS011;14556;52.222;4.510;2024-02-21T00:37:12;11.17;;;2.10;;
27013;SDS011;14556;52.222;4.510;2024-02-21T00:39:38;11.57;;;2.00;;
27013;SDS011;14556;52.222;4.510;2024-02-21T00:42:05;7.77;;;1.50;;
27013;SDS011;14556;52.222;4.510;2024-02-21T00:44:33;12.67;;;2.90;;
27013;SDS011;14556;52.222;4.510;2024-02-21T00:47:00;8.10;;;2.00;;
27013;SDS011;14556;52.222;4.510;2024-02-21T00:49:26;12.43;;;2.33;;
27013;SDS011;14556;52.222;4.510;2024-02-21T00:51:53;12.77;;;2.13;;
27013;SDS011;14556;52.222;4.510;2024-02-21T00:54:20;12.17;;;2.10;;
27013;SDS011;14556;52.222;4.510;2024-02-21T00:56:46;9.33;;;1.93;;
27013;SDS011;14556;52.222;4.510;2024-02-21T00:59:13;12.23;;;2.87;;
27013;SDS011;14556;52.222;4.510;2024-02-21T01:01:40;9.03;;;2.13;;
27013;SDS011;14556;52.222;4.510;2024-02-21T01:04:09;12.17;;;2.57;;
27013;SDS011;14556;52.222;4.510;2024-02-21T01:06:36;14.27;;;2.03;;
27013;SDS011;14556;52.222;4.510;2024-02-21T01:09:02;4.27;;;1.40;;
27013;SDS011;14556;52.222;4.510;2024-02-21T01:11:28;8.90;;;3.03;;
27013;SDS011;14556;52.222;4.510;2024-02-21T01:13:55;10.67;;;1.90;;
27013;SDS011;14556;52.222;4.510;2024-02-21T01:16:22;8.13;;;2.37;;
27013;SDS011;14556;52.222;4.510;2024-02-21T01:18:50;14.60;;;2.30;;
27013;SDS011;14556;52.222;4.510;2024-02-21T01:21:16;9.57;;;2.03;;
27013;SDS011;14556;52.222;4.510;2024-02-21T01:23:44;9.20;;;1.40;;
27013;SDS011;14556;52.222;4.510;2024-02-21T01:26:10;8.67;;;2.13;;
27013;SDS011;14556;52.222;4.510;2024-02-21T01:28:40;8.93;;;2.70;;
27013;SDS011;14556;52.222;4.510;2024-02-21T01:31:07;13.23;;;2.10;;
27013;SDS011;14556;52.222;4.510;2024-02-21T01:33:34;6.43;;;2.10;;
27013;SDS011;14556;52.222;4.510;2024-02-21T01:36:05;11.67;;;2.20;;
27013;SDS011;14556;52.222;4.510;2024-02-21T01:38:35;8.80;;;1.67;;
27013;SDS011;14556;52.222;4.510;2024-02-21T01:41:02;16.40;;;3.10;;
27013;SDS011;14556;52.222;4.510;2024-02-21T01:43:29;5.27;;;1.30;;
27013;SDS011;14556;52.222;4.510;2024-02-21T01:45:55;13.20;;;2.40;;
27013;SDS011;14556;52.222;4.510;2024-02-21T01:48:22;14.20;;;2.63;;
27013;SDS011;14556;52.222;4.510;2024-02-21T01:50:50;17.53;;;2.40;;
27013;SDS011;14556;52.222;4.510;2024-02-21T01:53:18;11.17;;;2.17;;
27013;SDS011;14556;52.222;4.510;2024-02-21T01:55:46;7.90;;;2.10;;
27013;SDS011;14556;52.222;4.510;2024-02-21T01:58:16;7.83;;;1.80;;
27013;SDS011;14556;52.222;4.510;2024-02-21T02:00:43;10.87;;;2.07;;
27013;SDS011;14556;52.222;4.510;2024-02-21T02:03:11;9.63;;;2.33;;
27013;SDS011;14556;52.222;4.510;2024-02-21T02:05:43;12.70;;;1.87;;
27013;SDS011;14556;52.222;4.510;2024-02-21T02:08:11;11.23;;;1.80;;
27013;SDS011;14556;52.222;4.510;2024-02-21T02:10:38;7.10;;;1.67;;
27013;SDS011;14556;52.222;4.510;2024-02-21T02:13:05;7.53;;;2.20;;
27013;SDS011;14556;52.222;4.510;2024-02-21T02:15:41;12.63;;;1.83;;
27013;SDS011;14556;52.222;4.510;2024-02-21T02:18:08;8.80;;;1.90;;
27013;SDS011;14556;52.222;4.510;2024-02-21T02:20:35;11.20;;;1.90;;
27013;SDS011;14556;52.222;4.510;2024-02-21T02:25:38;13.97;;;2.40;;
27013;SDS011;14556;52.222;4.510;2024-02-21T02:28:08;8.37;;;1.77;;
27013;SDS011;14556;52.222;4.510;2024-02-21T02:30:37;11.20;;;1.87;;
27013;SDS011;14556;52.222;4.510;2024-02-21T02:33:04;7.17;;;1.90;;
27013;SDS011;14556;52.222;4.510;2024-02-21T02:35:33;10.80;;;2.10;;
27013;SDS011;14556;52.222;4.510;2024-02-21T02:38:04;10.47;;;2.73;;
27013;SDS011;14556;52.222;4.510;2024-02-21T02:40:32;7.50;;;1.80;;
27013;SDS011;14556;52.222;4.510;2024-02-21T02:42:59;9.07;;;1.70;;
27013;SDS011;14556;52.222;4.510;2024-02-21T02:45:27;7.87;;;2.50;;
27013;SDS011;14556;52.222;4.510;2024-02-21T02:47:53;10.97;;;2.07;;
27013;SDS011;14556;52.222;4.510;2024-02-21T02:50:24;7.90;;;1.70;;
27013;SDS011;14556;52.222;4.510;2024-02-21T02:52:50;8.80;;;1.70;;
27013;SDS011;14556;52.222;4.510;2024-02-21T02:55:19;19.43;;;2.70;;
27013;SDS011;14556;52.222;4.510;2024-02-21T02:57:46;8.80;;;1.73;;
27013;SDS011;14556;52.222;4.510;2024-02-21T03:00:14;8.13;;;1.80;;
27013;SDS011;14556;52.222;4.510;2024-02-21T03:02:41;13.23;;;2.30;;
27013;SDS011;14556;52.222;4.510;2024-02-21T03:05:12;9.83;;;1.70;;
27013;SDS011;14556;52.222;4.510;2024-02-21T03:07:39;13.50;;;2.27;;
27013;SDS011;14556;52.222;4.510;2024-02-21T03:10:06;5.17;;;1.67;;
27013;SDS011;14556;52.222;4.510;2024-02-21T03:12:32;9.57;;;1.90;;
27013;SDS011;14556;52.222;4.510;2024-02-21T03:14:59;11.87;;;2.47;;
27013;SDS011;14556;52.222;4.510;2024-02-21T03:17:25;9.50;;;1.50;;
27013;SDS011;14556;52.222;4.510;2024-02-21T03:19:53;7.73;;;1.53;;
27013;SDS011;14556;52.222;4.510;2024-02-21T03:22:20;13.10;;;2.23;;
27013;SDS011;14556;52.222;4.510;2024-02-21T03:24:47;8.70;;;1.60;;
27013;SDS011;14556;52.222;4.510;2024-02-21T03:27:25;7.03;;;1.83;;
27013;SDS011;14556;52.222;4.510;2024-02-21T03:29:52;6.30;;;1.20;;
27013;SDS011;14556;52.222;4.510;2024-02-21T03:32:18;13.47;;;2.33;;
27013;SDS011;14556;52.222;4.510;2024-02-21T03:34:45;9.80;;;2.00;;
27013;SDS011;14556;52.222;4.510;2024-02-21T03:37:11;4.43;;;1.40;;
27013;SDS011;14556;52.222;4.510;2024-02-21T03:39:41;6.33;;;1.83;;
27013;SDS011;14556;52.222;4.510;2024-02-21T03:42:07;5.43;;;1.90;;
27013;SDS011;14556;52.222;4.510;2024-02-21T03:44:33;11.17;;;1.77;;
27013;SDS011;14556;52.222;4.510;2024-02-21T03:47:00;9.67;;;2.03;;
27013;SDS011;14556;52.222;4.510;2024-02-21T03:49:27;10.53;;;1.93;;
27013;SDS011;14556;52.222;4.510;2024-02-21T03:51:53;9.97;;;1.90;;
27013;SDS011;14556;52.222;4.510;2024-02-21T03:54:23;4.27;;;1.50;;
27013;SDS011;14556;52.222;4.510;2024-02-21T03:56:50;4.70;;;1.87;;
27013;SDS011;14556;52.222;4.510;2024-02-21T03:59:16;7.50;;;1.90;;
27013;SDS011;14556;52.222;4.510;2024-02-21T04:01:43;9.70;;;1.73;;
27013;SDS011;14556;52.222;4.510;2024-02-21T04:04:10;4.80;;;2.37;;
27013;SDS011;14556;52.222;4.510;2024-02-21T04:06:45;9.93;;;2.13;;
27013;SDS011;14556;52.222;4.510;2024-02-21T04:09:12;6.40;;;2.20;;
27013;SDS011;14556;52.222;4.510;2024-02-21T04:11:38;6.03;;;2.10;;
27013;SDS011;14556;52.222;4.510;2024-02-21T04:14:05;7.03;;;2.03;;
27013;SDS011;14556;52.222;4.510;2024-02-21T04:16:31;5.10;;;2.40;;
27013;SDS011;14556;52.222;4.510;2024-02-21T04:18:58;12.90;;;3.53;;
27013;SDS011;14556;52.222;4.510;2024-02-21T04:21:24;13.97;;;2.33;;
27013;SDS011;14556;52.222;4.510;2024-02-21T04:23:51;9.20;;;2.33;;
27013;SDS011;14556;52.222;4.510;2024-02-21T04:26:17;5.50;;;1.97;;
27013;SDS011;14556;52.222;4.510;2024-02-21T04:28:44;10.03;;;2.93;;
27013;SDS011;14556;52.222;4.510;2024-02-21T04:31:11;7.53;;;2.93;;
27013;SDS011;14556;52.222;4.510;2024-02-21T04:33:37;7.37;;;2.50;;
27013;SDS011;14556;52.222;4.510;2024-02-21T04:36:04;9.40;;;2.63;;
27013;SDS011;14556;52.222;4.510;2024-02-21T04:38:31;11.07;;;2.67;;
27013;SDS011;14556;52.222;4.510;2024-02-21T04:40:57;5.60;;;2.43;;
27013;SDS011;14556;52.222;4.510;2024-02-21T04:43:25;7.50;;;2.80;;
27013;SDS011;14556;52.222;4.510;2024-02-21T04:45:51;10.03;;;3.03;;
27013;SDS011;14556;52.222;4.510;2024-02-21T04:48:19;9.53;;;2.80;;
27013;SDS011;14556;52.222;4.510;2024-02-21T04:50:47;6.43;;;2.70;;
27013;SDS011;14556;52.222;4.510;2024-02-21T04:53:15;11.70;;;3.00;;
27013;SDS011;14556;52.222;4.510;2024-02-21T04:55:42;8.27;;;2.77;;
27013;SDS011;14556;52.222;4.510;2024-02-21T04:58:09;13.17;;;3.27;;
27013;SDS011;14556;52.222;4.510;2024-02-21T05:00:35;12.53;;;3.13;;
27013;SDS011;14556;52.222;4.510;2024-02-21T05:03:02;12.13;;;3.13;;
27013;SDS011;14556;52.222;4.510;2024-02-21T05:05:31;9.27;;;2.90;;
27013;SDS011;14556;52.222;4.510;2024-02-21T05:07:57;7.53;;;2.90;;
27013;SDS011;14556;52.222;4.510;2024-02-21T05:10:24;11.77;;;3.70;;
27013;SDS011;14556;52.222;4.510;2024-02-21T05:12:50;9.03;;;3.00;;
27013;SDS011;14556;52.222;4.510;2024-02-21T05:15:17;10.60;;;3.23;;
27013;SDS011;14556;52.222;4.510;2024-02-21T05:17:43;11.47;;;3.10;;
27013;SDS011;14556;52.222;4.510;2024-02-21T05:20:10;8.13;;;2.87;;
27013;SDS011;14556;52.222;4.510;2024-02-21T05:22:38;10.20;;;3.80;;
27013;SDS011;14556;52.222;4.510;2024-02-21T05:25:05;6.27;;;3.00;;
27013;SDS011;14556;52.222;4.510;2024-02-21T05:27:32;11.30;;;3.10;;
27013;SDS011;14556;52.222;4.510;2024-02-21T05:29:59;3.87;;;2.53;;
27013;SDS011;14556;52.222;4.510;2024-02-21T05:32:26;10.70;;;3.93;;
27013;SDS011;14556;52.222;4.510;2024-02-21T05:34:52;12.17;;;3.57;;
27013;SDS011;14556;52.222;4.510;2024-02-21T05:37:19;8.67;;;3.03;;
27013;SDS011;14556;52.222;4.510;2024-02-21T05:39:46;7.13;;;3.23;;
27013;SDS011;14556;52.222;4.510;2024-02-21T05:42:13;7.13;;;3.00;;
27013;SDS011;14556;52.222;4.510;2024-02-21T05:44:40;6.13;;;3.10;;
27013;SDS011;14556;52.222;4.510;2024-02-21T05:47:07;11.80;;;4.63;;
27013;SDS011;14556;52.222;4.510;2024-02-21T05:49:38;14.37;;;3.87;;
27013;SDS011;14556;52.222;4.510;2024-02-21T05:52:05;8.17;;;3.17;;
27013;SDS011;14556;52.222;4.510;2024-02-21T05:54:32;8.13;;;3.57;;
27013;SDS011;14556;52.222;4.510;2024-02-21T05:57:01;7.83;;;2.80;;
27013;SDS011;14556;52.222;4.510;2024-02-21T05:59:29;9.90;;;3.30;;
27013;SDS011;14556;52.222;4.510;2024-02-21T06:01:57;7.33;;;3.43;;
27013;SDS011;14556;52.222;4.510;2024-02-21T06:04:24;10.00;;;4.07;;
27013;SDS011;14556;52.222;4.510;2024-02-21T06:06:51;7.70;;;4.67;;
27013;SDS011;14556;52.222;4.510;2024-02-21T06:09:18;8.20;;;4.30;;
27013;SDS011;14556;52.222;4.510;2024-02-21T06:11:46;9.23;;;4.27;;
27013;SDS011;14556;52.222;4.510;2024-02-21T06:14:15;10.90;;;5.57;;
27013;SDS011;14556;52.222;4.510;2024-02-21T06:16:43;9.20;;;5.13;;
27013;SDS011;14556;52.222;4.510;2024-02-21T06:19:09;9.47;;;4.90;;
27013;SDS011;14556;52.222;4.510;2024-02-21T06:21:36;9.33;;;5.20;;
27013;SDS011;14556;52.222;4.510;2024-02-21T06:24:03;15.97;;;5.40;;
27013;SDS011;14556;52.222;4.510;2024-02-21T06:26:29;11.30;;;5.13;;
27013;SDS011;14556;52.222;4.510;2024-02-21T06:28:56;12.77;;;5.53;;
27013;SDS011;14556;52.222;4.510;2024-02-21T06:31:24;11.63;;;5.03;;
27013;SDS011;14556;52.222;4.510;2024-02-21T06:33:51;11.30;;;5.80;;
27013;SDS011;14556;52.222;4.510;2024-02-21T06:36:17;13.47;;;5.87;;
27013;SDS011;14556;52.222;4.510;2024-02-21T06:38:44;16.77;;;6.87;;
27013;SDS011;14556;52.222;4.510;2024-02-21T06:41:16;16.57;;;6.90;;
27013;SDS011;14556;52.222;4.510;2024-02-21T06:43:45;12.07;;;6.07;;
27013;SDS011;14556;52.222;4.510;2024-02-21T06:46:22;13.10;;;6.40;;
27013;SDS011;14556;52.222;4.510;2024-02-21T06:48:48;9.80;;;5.73;;
27013;SDS011;14556;52.222;4.510;2024-02-21T06:51:15;9.03;;;5.93;;
27013;SDS011;14556;52.222;4.510;2024-02-21T06:53:42;12.70;;;6.33;;
27013;SDS011;14556;52.222;4.510;2024-02-21T06:56:11;15.03;;;6.80;;
27013;SDS011;14556;52.222;4.510;2024-02-21T06:58:38;14.07;;;7.47;;
27013;SDS011;14556;52.222;4.510;2024-02-21T07:01:05;13.03;;;6.73;;
27013;SDS011;14556;52.222;4.510;2024-02-21T07:03:31;12.27;;;7.53;;
27013;SDS011;14556;52.222;4.510;2024-02-21T07:05:58;10.17;;;5.93;;
27013;SDS011;14556;52.222;4.510;2024-02-21T07:08:25;14.67;;;7.50;;
27013;SDS011;14556;52.222;4.510;2024-02-21T07:10:53;12.03;;;7.13;;
27013;SDS011;14556;52.222;4.510;2024-02-21T07:13:20;12.47;;;7.13;;
27013;SDS011;14556;52.222;4.510;2024-02-21T07:15:48;10.50;;;6.90;;
27013;SDS011;14556;52.222;4.510;2024-02-21T07:18:14;10.07;;;6.97;;
27013;SDS011;14556;52.222;4.510;2024-02-21T07:20:41;10.97;;;7.10;;
27013;SDS011;14556;52.222;4.510;2024-02-21T07:23:08;10.60;;;7.13;;
27013;SDS011;14556;52.222;4.510;2024-02-21T07:25:34;11.57;;;7.13;;
27013;SDS011;14556;52.222;4.510;2024-02-21T07:28:01;12.57;;;7.20;;
27013;SDS011;14556;52.222;4.510;2024-02-21T07:30:27;13.47;;;8.57;;
27013;SDS011;14556;52.222;4.510;2024-02-21T07:32:54;14.17;;;7.10;;
27013;SDS011;14556;52.222;4.510;2024-02-21T07:35:20;13.67;;;8.00;;
27013;SDS011;14556;52.222;4.510;2024-02-21T07:37:47;14.43;;;7.70;;
27013;SDS011;14556;52.222;4.510;2024-02-21T07:40:15;15.87;;;8.07;;
27013;SDS011;14556;52.222;4.510;2024-02-21T07:42:43;19.97;;;8.87;;
27013;SDS011;14556;52.222;4.510;2024-02-21T07:45:16;12.43;;;8.10;;
27013;SDS011;14556;52.222;4.510;2024-02-21T07:47:43;15.27;;;8.13;;
27013;SDS011;14556;52.222;4.510;2024-02-21T07:50:10;16.70;;;8.07;;
27013;SDS011;14556;52.222;4.510;2024-02-21T07:52:36;13.87;;;7.57;;
27013;SDS011;14556;52.222;4.510;2024-02-21T07:55:03;17.67;;;9.23;;
27013;SDS011;14556;52.222;4.510;2024-02-21T07:57:29;12.80;;;7.80;;
27013;SDS011;14556;52.222;4.510;2024-02-21T07:59:56;18.47;;;9.17;;
27013;SDS011;14556;52.222;4.510;2024-02-21T08:02:23;16.23;;;8.57;;
27013;SDS011;14556;52.222;4.510;2024-02-21T08:04:49;15.90;;;8.60;;
27013;SDS011;14556;52.222;4.510;2024-02-21T08:07:16;13.20;;;7.63;;
27013;SDS011;14556;52.222;4.510;2024-02-21T08:09:42;14.47;;;8.23;;
27013;SDS011;14556;52.222;4.510;2024-02-21T08:12:16;18.07;;;8.30;;
27013;SDS011;14556;52.222;4.510;2024-02-21T08:14:43;18.07;;;8.17;;
27013;SDS011;14556;52.222;4.510;2024-02-21T08:17:10;17.17;;;8.87;;
27013;SDS011;14556;52.222;4.510;2024-02-21T08:19:37;18.73;;;9.03;;
27013;SDS011;14556;52.222;4.510;2024-02-21T08:22:04;13.13;;;7.37;;
27013;SDS011;14556;52.222;4.510;2024-02-21T08:24:30;15.60;;;8.07;;
27013;SDS011;14556;52.222;4.510;2024-02-21T08:26:57;17.87;;;9.17;;
27013;SDS011;14556;52.222;4.510;2024-02-21T08:29:23;15.80;;;7.63;;
27013;SDS011;14556;52.222;4.510;2024-02-21T08:31:49;13.43;;;7.53;;
27013;SDS011;14556;52.222;4.510;2024-02-21T08:34:16;13.97;;;7.83;;
27013;SDS011;14556;52.222;4.510;2024-02-21T08:36:44;16.47;;;8.30;;
27013;SDS011;14556;52.222;4.510;2024-02-21T08:39:10;15.77;;;8.13;;
27013;SDS011;14556;52.222;4.510;2024-02-21T08:41:37;13.40;;;7.63;;
27013;SDS011;14556;52.222;4.510;2024-02-21T08:44:22;19.00;;;7.67;;
27013;SDS011;14556;52.222;4.510;2024-02-21T08:46:48;16.37;;;7.80;;
27013;SDS011;14556;52.222;4.510;2024-02-21T08:49:15;18.20;;;8.10;;
27013;SDS011;14556;52.222;4.510;2024-02-21T08:51:41;14.73;;;7.83;;
27013;SDS011;14556;52.222;4.510;2024-02-21T08:54:09;14.37;;;8.00;;
27013;SDS011;14556;52.222;4.510;2024-02-21T08:56:36;15.30;;;8.23;;
27013;SDS011;14556;52.222;4.510;2024-02-21T08:59:03;22.10;;;9.23;;
27013;SDS011;14556;52.222;4.510;2024-02-21T09:01:30;16.77;;;8.00;;
27013;SDS011;14556;52.222;4.510;2024-02-21T09:03:56;14.03;;;8.13;;
27013;SDS011;14556;52.222;4.510;2024-02-21T09:06:23;14.53;;;8.47;;
27013;SDS011;14556;52.222;4.510;2024-02-21T09:08:50;23.07;;;9.10;;
27013;SDS011;14556;52.222;4.510;2024-02-21T09:11:16;17.90;;;9.20;;
27013;SDS011;14556;52.222;4.510;2024-02-21T09:13:43;15.50;;;9.03;;
27013;SDS011;14556;52.222;4.510;2024-02-21T09:16:09;17.70;;;10.07;;
27013;SDS011;14556;52.222;4.510;2024-02-21T09:18:35;17.67;;;9.60;;
27013;SDS011;14556;52.222;4.510;2024-02-21T09:21:02;17.33;;;9.73;;
27013;SDS011;14556;52.222;4.510;2024-02-21T09:23:29;17.60;;;10.00;;
27013;SDS011;14556;52.222;4.510;2024-02-21T09:25:58;14.97;;;9.13;;
27013;SDS011;14556;52.222;4.510;2024-02-21T09:28:27;15.43;;;8.67;;
27013;SDS011;14556;52.222;4.510;2024-02-21T09:30:54;18.00;;;9.70;;
27013;SDS011;14556;52.222;4.510;2024-02-21T09:33:20;15.77;;;9.40;;
27013;SDS011;14556;52.222;4.510;2024-02-21T09:35:57;15.57;;;9.40;;
27013;SDS011;14556;52.222;4.510;2024-02-21T09:38:23;15.23;;;9.00;;
27013;SDS011;14556;52.222;4.510;2024-02-21T09:40:58;15.33;;;8.43;;
27013;SDS011;14556;52.222;4.510;2024-02-21T09:43:27;16.50;;;8.50;;
27013;SDS011;14556;52.222;4.510;2024-02-21T09:45:54;16.73;;;9.10;;
27013;SDS011;14556;52.222;4.510;2024-02-21T09:48:25;17.47;;;9.20;;
27013;SDS011;14556;52.222;4.510;2024-02-21T09:51:01;19.43;;;9.43;;
27013;SDS011;14556;52.222;4.510;2024-02-21T09:53:29;15.17;;;9.33;;
27013;SDS011;14556;52.222;4.510;2024-02-21T09:55:56;15.97;;;8.00;;
27013;SDS011;14556;52.222;4.510;2024-02-21T09:58:23;14.03;;;8.57;;
27013;SDS011;14556;52.222;4.510;2024-02-21T10:00:50;15.63;;;8.00;;
27013;SDS011;14556;52.222;4.510;2024-02-21T10:03:19;16.63;;;8.00;;
27013;SDS011;14556;52.222;4.510;2024-02-21T10:05:48;16.87;;;9.33;;
27013;SDS011;14556;52.222;4.510;2024-02-21T10:08:22;15.93;;;8.40;;
27013;SDS011;14556;52.222;4.510;2024-02-21T10:10:48;15.80;;;8.47;;
27013;SDS011;14556;52.222;4.510;2024-02-21T10:16:00;17.00;;;8.40;;
27013;SDS011;14556;52.222;4.510;2024-02-21T10:18:28;15.43;;;8.20;;
27013;SDS011;14556;52.222;4.510;2024-02-21T10:21:04;14.40;;;8.90;;
27013;SDS011;14556;52.222;4.510;2024-02-21T10:23:44;15.57;;;8.37;;
27013;SDS011;14556;52.222;4.510;2024-02-21T10:26:10;17.83;;;8.10;;
27013;SDS011;14556;52.222;4.510;2024-02-21T10:28:37;15.87;;;8.17;;
27013;SDS011;14556;52.222;4.510;2024-02-21T10:31:20;13.57;;;7.63;;
27013;SDS011;14556;52.222;4.510;2024-02-21T10:33:53;13.77;;;7.83;;
27013;SDS011;14556;52.222;4.510;2024-02-21T10:36:22;13.33;;;7.50;;
27013;SDS011;14556;52.222;4.510;2024-02-21T10:38:49;12.43;;;7.83;;
27013;SDS011;14556;52.222;4.510;2024-02-21T10:41:15;13.77;;;7.90;;
27013;SDS011;14556;52.222;4.510;2024-02-21T10:43:43;11.63;;;7.73;;
27013;SDS011;14556;52.222;4.510;2024-02-21T10:46:12;15.40;;;8.13;;
27013;SDS011;14556;52.222;4.510;2024-02-21T10:48:42;13.00;;;7.37;;
27013;SDS011;14556;52.222;4.510;2024-02-21T10:56:29;15.27;;;8.57;;
27013;SDS011;14556;52.222;4.510;2024-02-21T10:59:00;12.57;;;8.00;;
27013;SDS011;14556;52.222;4.510;2024-02-21T11:01:28;16.37;;;9.27;;
27013;SDS011;14556;52.222;4.510;2024-02-21T11:03:56;14.43;;;7.70;;
27013;SDS011;14556;52.222;4.510;2024-02-21T11:06:23;12.10;;;7.50;;
27013;SDS011;14556;52.222;4.510;2024-02-21T11:09:06;13.43;;;8.50;;
27013;SDS011;14556;52.222;4.510;2024-02-21T11:14:07;15.83;;;8.60;;
27013;SDS011;14556;52.222;4.510;2024-02-21T11:16:40;13.97;;;9.33;;
27013;SDS011;14556;52.222;4.510;2024-02-21T11:19:19;14.80;;;8.83;;
27013;SDS011;14556;52.222;4.510;2024-02-21T11:21:46;14.33;;;9.30;;
27013;SDS011;14556;52.222;4.510;2024-02-21T11:24:14;15.73;;;8.67;;
27013;SDS011;14556;52.222;4.510;2024-02-21T11:26:51;16.40;;;9.07;;
27013;SDS011;14556;52.222;4.510;2024-02-21T11:29:23;15.27;;;9.00;;
27013;SDS011;14556;52.222;4.510;2024-02-21T11:31:49;12.97;;;8.23;;
27013;SDS011;14556;52.222;4.510;2024-02-21T11:34:17;22.07;;;9.97;;
27013;SDS011;14556;52.222;4.510;2024-02-21T11:36:51;16.50;;;10.00;;
27013;SDS011;14556;52.222;4.510;2024-02-21T11:39:24;16.03;;;8.60;;
27013;SDS011;14556;52.222;4.510;2024-02-21T11:42:04;20.87;;;9.63;;
27013;SDS011;14556;52.222;4.510;2024-02-21T11:44:32;17.20;;;9.20;;
27013;SDS011;14556;52.222;4.510;2024-02-21T11:47:00;13.20;;;8.93;;
27013;SDS011;14556;52.222;4.510;2024-02-21T11:49:28;15.27;;;8.77;;
27013;SDS011;14556;52.222;4.510;2024-02-21T11:52:01;14.07;;;8.80;;
27013;SDS011;14556;52.222;4.510;2024-02-21T11:54:30;14.57;;;9.80;;
27013;SDS011;14556;52.222;4.510;2024-02-21T11:56:56;15.57;;;9.27;;
27013;SDS011;14556;52.222;4.510;2024-02-21T11:59:23;14.37;;;8.10;;
27013;SDS011;14556;52.222;4.510;2024-02-21T12:01:49;12.47;;;8.47;;
27013;SDS011;14556;52.222;4.510;2024-02-21T12:04:18;12.93;;;8.57;;
27013;SDS011;14556;52.222;4.510;2024-02-21T12:06:46;13.77;;;8.23;;
27013;SDS011;14556;52.222;4.510;2024-02-21T12:09:15;13.73;;;8.47;;
27013;SDS011;14556;52.222;4.510;2024-02-21T12:11:45;12.97;;;7.30;;
27013;SDS011;14556;52.222;4.510;2024-02-21T12:14:17;12.93;;;7.87;;
27013;SDS011;14556;52.222;4.510;2024-02-21T12:16:45;13.53;;;8.70;;
27013;SDS011;14556;52.222;4.510;2024-02-21T12:19:16;15.43;;;7.53;;
27013;SDS011;14556;52.222;4.510;2024-02-21T12:21:43;15.57;;;7.93;;
27013;SDS011;14556;52.222;4.510;2024-02-21T12:24:14;18.10;;;8.40;;
27013;SDS011;14556;52.222;4.510;2024-02-21T12:26:40;11.87;;;7.30;;
27013;SDS011;14556;52.222;4.510;2024-02-21T12:29:07;13.03;;;7.77;;
27013;SDS011;14556;52.222;4.510;2024-02-21T12:31:40;9.83;;;6.33;;
27013;SDS011;14556;52.222;4.510;2024-02-21T12:34:06;12.73;;;7.53;;
27013;SDS011;14556;52.222;4.510;2024-02-21T12:36:33;10.17;;;6.00;;
27013;SDS011;14556;52.222;4.510;2024-02-21T12:39:02;10.03;;;6.77;;
27013;SDS011;14556;52.222;4.510;2024-02-21T12:41:30;7.77;;;5.80;;
27013;SDS011;14556;52.222;4.510;2024-02-21T12:43:58;11.73;;;6.67;;
27013;SDS011;14556;52.222;4.510;2024-02-21T12:46:24;12.60;;;6.27;;
27013;SDS011;14556;52.222;4.510;2024-02-21T12:48:51;11.93;;;6.43;;
27013;SDS011;14556;52.222;4.510;2024-02-21T12:51:17;9.13;;;5.43;;
27013;SDS011;14556;52.222;4.510;2024-02-21T12:53:47;10.60;;;5.70;;
27013;SDS011;14556;52.222;4.510;2024-02-21T12:56:15;8.30;;;5.47;;
27013;SDS011;14556;52.222;4.510;2024-02-21T12:58:42;7.97;;;5.57;;
27013;SDS011;14556;52.222;4.510;2024-02-21T13:01:11;7.30;;;5.47;;
27013;SDS011;14556;52.222;4.510;2024-02-21T13:03:37;12.50;;;6.30;;
27013;SDS011;14556;52.222;4.510;2024-02-21T13:06:05;8.90;;;5.23;;
27013;SDS011;14556;52.222;4.510;2024-02-21T13:08:31;8.93;;;5.73;;
27013;SDS011;14556;52.222;4.510;2024-02-21T13:10:58;9.40;;;6.20;;
27013;SDS011;14556;52.222;4.510;2024-02-21T13:13:24;11.27;;;6.00;;
27013;SDS011;14556;52.222;4.510;2024-02-21T13:15:51;7.90;;;5.83;;
27013;SDS011;14556;52.222;4.510;2024-02-21T13:18:17;10.40;;;6.10;;
27013;SDS011;14556;52.222;4.510;2024-02-21T13:20:44;8.57;;;5.97;;
27013;SDS011;14556;52.222;4.510;2024-02-21T13:23:13;8.50;;;5.53;;
27013;SDS011;14556;52.222;4.510;2024-02-21T13:25:39;8.37;;;5.60;;
27013;SDS011;14556;52.222;4.510;2024-02-21T13:28:07;8.10;;;5.87;;
27013;SDS011;14556;52.222;4.510;2024-02-21T13:30:35;11.00;;;6.17;;
27013;SDS011;14556;52.222;4.510;2024-02-21T13:33:01;8.03;;;5.80;;
27013;SDS011;14556;52.222;4.510;2024-02-21T13:35:30;8.00;;;5.37;;
27013;SDS011;14556;52.222;4.510;2024-02-21T13:37:56;9.00;;;5.93;;
27013;SDS011;14556;52.222;4.510;2024-02-21T13:40:23;13.00;;;6.70;;
27013;SDS011;14556;52.222;4.510;2024-02-21T13:42:49;10.87;;;6.43;;
27013;SDS011;14556;52.222;4.510;2024-02-21T13:45:17;11.23;;;7.47;;
27013;SDS011;14556;52.222;4.510;2024-02-21T13:47:44;11.23;;;6.57;;
27013;SDS011;14556;52.222;4.510;2024-02-21T13:50:10;12.53;;;7.10;;
27013;SDS011;14556;52.222;4.510;2024-02-21T13:52:37;10.57;;;6.70;;
27013;SDS011;14556;52.222;4.510;2024-02-21T13:55:04;10.33;;;7.37;;
27013;SDS011;14556;52.222;4.510;2024-02-21T13:57:30;12.60;;;7.40;;
27013;SDS011;14556;52.222;4.510;2024-02-21T13:59:57;14.10;;;7.83;;
27013;SDS011;14556;52.222;4.510;2024-02-21T14:02:23;11.83;;;8.33;;
27013;SDS011;14556;52.222;4.510;2024-02-21T14:04:50;12.60;;;8.90;;
27013;SDS011;14556;52.222;4.510;2024-02-21T14:07:17;12.60;;;8.07;;
27013;SDS011;14556;52.222;4.510;2024-02-21T14:09:43;11.80;;;7.83;;
27013;SDS011;14556;52.222;4.510;2024-02-21T14:12:10;12.93;;;8.17;;
27013;SDS011;14556;52.222;4.510;2024-02-21T14:14:36;12.13;;;7.70;;
27013;SDS011;14556;52.222;4.510;2024-02-21T14:17:05;13.50;;;6.83;;
27013;SDS011;14556;52.222;4.510;2024-02-21T14:19:32;13.63;;;7.33;;
27013;SDS011;14556;52.222;4.510;2024-02-21T14:21:59;14.67;;;7.00;;
27013;SDS011;14556;52.222;4.510;2024-02-21T14:24:26;14.80;;;6.93;;
27013;SDS011;14556;52.222;4.510;2024-02-21T14:26:54;9.87;;;6.73;;
27013;SDS011;14556;52.222;4.510;2024-02-21T14:29:21;9.67;;;6.67;;
27013;SDS011;14556;52.222;4.510;2024-02-21T14:31:47;11.90;;;6.67;;
27013;SDS011;14556;52.222;4.510;2024-02-21T14:34:14;9.03;;;6.30;;
27013;SDS011;14556;52.222;4.510;2024-02-21T14:36:41;12.43;;;5.97;;
27013;SDS011;14556;52.222;4.510;2024-02-21T14:39:07;9.13;;;5.83;;
27013;SDS011;14556;52.222;4.510;2024-02-21T14:41:33;9.70;;;5.87;;
27013;SDS011;14556;52.222;4.510;2024-02-21T14:44:01;10.57;;;6.77;;
27013;SDS011;14556;52.222;4.510;2024-02-21T14:46:30;9.23;;;5.80;;
27013;SDS011;14556;52.222;4.510;2024-02-21T14:48:56;13.57;;;5.77;;
27013;SDS011;14556;52.222;4.510;2024-02-21T14:51:23;7.67;;;5.63;;
27013;SDS011;14556;52.222;4.510;2024-02-21T14:53:50;8.30;;;5.27;;